Time;durP1;ratioP1;P1;durP2;ratioP2;P2;SDS_P1;SDS_P2;PMS_P1;PMS_P2;Temp;Humidity;BMP_temperature;BMP_pressure;BME280_temperature;BME280_humidity;BME280_pressure;Samples;Min_cycle;Max_cycle;Signal;HPM_P1;HPM_P2
2020/12/16 00:01:17;;;;;;;61.53;33.17;;;5.10;99.90;;;;;;4904932;26;20061;-85
2020/12/16 00:03:45;;;;;;;55.03;33.78;;;5.20;99.90;;;;;;4977863;28;20520;-84
2020/12/16 00:06:11;;;;;;;60.90;33.90;;;5.30;99.90;;;;;;4977311;28;20031;-85
2020/12/16 00:08:38;;;;;;;57.55;33.95;;;5.30;99.90;;;;;;4977145;28;20025;-84
2020/12/16 00:11:04;;;;;;;54.88;32.33;;;5.30;99.90;;;;;;4976588;28;20128;-83
2020/12/16 00:13:29;;;;;;;56.55;33.50;;;5.00;99.90;;;;;;4976011;28;20090;-84
2020/12/16 00:15:58;;;;;;;61.90;35.10;;;5.10;99.90;;;;;;4984686;28;20047;-84
2020/12/16 00:18:24;;;;;;;66.75;37.72;;;5.20;99.90;;;;;;4957399;28;20027;-85
2020/12/16 00:20:50;;;;;;;67.80;39.13;;;5.30;99.90;;;;;;4957716;28;20039;-85
2020/12/16 00:23:16;;;;;;;73.55;38.35;;;5.10;99.90;;;;;;4993834;23;20050;-86
2020/12/16 00:25:42;;;;;;;60.97;37.47;;;5.00;99.90;;;;;;4996869;28;20025;-84
2020/12/16 00:28:08;;;;;;;66.47;38.35;;;4.80;99.90;;;;;;5013517;28;20049;-84
2020/12/16 00:30:59;;;;;;;60.47;35.03;;;4.80;99.90;;;;;;5245780;23;20056;-84
2020/12/16 00:33:24;;;;;;;;;;;4.80;99.90;;;;;;5013146;28;20337;-83
2020/12/16 00:35:50;;;;;;;62.08;36.45;;;4.50;99.90;;;;;;4995369;28;20375;-85
2020/12/16 00:38:34;;;;;;;64.07;35.88;;;4.40;99.90;;;;;;5013330;28;20018;-84
2020/12/16 00:41:00;;;;;;;65.82;35.45;;;4.70;99.90;;;;;;4996422;28;20048;-82
2020/12/16 00:43:26;;;;;;;62.25;36.38;;;4.70;99.90;;;;;;4995821;28;20346;-84
2020/12/16 00:45:51;;;;;;;68.30;36.35;;;4.80;99.90;;;;;;5557094;23;20050;-81
2020/12/16 00:48:17;;;;;;;67.22;34.15;;;4.80;99.90;;;;;;5013598;28;20018;-84
2020/12/16 00:50:43;;;;;;;52.95;34.22;;;4.70;99.90;;;;;;5013465;28;20703;-83
2020/12/16 00:53:09;;;;;;;63.05;35.67;;;4.80;99.90;;;;;;4995507;28;20014;-85
2020/12/16 00:55:37;;;;;;;60.67;34.88;;;4.80;99.90;;;;;;4999289;28;20057;-84
2020/12/16 00:58:05;;;;;;;61.65;34.63;;;4.80;99.90;;;;;;5012842;28;20022;-85
2020/12/16 01:00:30;;;;;;;58.05;33.38;;;4.70;99.90;;;;;;5010931;28;20133;-85
2020/12/16 01:03:02;;;;;;;58.67;33.38;;;4.80;99.90;;;;;;5012592;28;20144;-85
2020/12/16 01:05:28;;;;;;;56.80;33.63;;;4.80;99.90;;;;;;5012129;28;20034;-84
2020/12/16 01:07:53;;;;;;;53.40;33.10;;;4.90;99.90;;;;;;5013366;28;20028;-85
2020/12/16 01:10:19;;;;;;;60.35;33.53;;;4.70;99.90;;;;;;5012354;28;20125;-84
2020/12/16 01:12:47;;;;;;;56.42;34.38;;;4.90;99.90;;;;;;5011613;28;20022;-84
2020/12/16 01:15:18;;;;;;;61.13;33.60;;;4.90;99.90;;;;;;5010367;28;20080;-82
2020/12/16 01:17:45;;;;;;;56.30;33.45;;;4.70;99.90;;;;;;5010875;28;20030;-83
2020/12/16 01:20:12;;;;;;;59.17;34.03;;;4.50;99.90;;;;;;5010994;28;20022;-83
2020/12/16 01:22:40;;;;;;;60.55;35.05;;;4.60;99.90;;;;;;5012622;28;20138;-83
2020/12/16 01:25:06;;;;;;;60.42;36.13;;;4.50;99.90;;;;;;5011694;28;20022;-81
2020/12/16 01:27:32;;;;;;;68.55;37.53;;;4.60;99.90;;;;;;5011779;28;20402;-84
2020/12/16 01:29:59;;;;;;;60.20;34.97;;;4.60;99.90;;;;;;5011587;28;20053;-84
2020/12/16 01:32:25;;;;;;;69.35;39.40;;;4.50;99.90;;;;;;5011896;28;20160;-83
2020/12/16 01:34:50;;;;;;;64.75;37.85;;;4.20;99.90;;;;;;5012920;28;20639;-84
2020/12/16 01:37:16;;;;;;;70.80;37.38;;;4.10;99.90;;;;;;5012802;28;20022;-81
2020/12/16 01:39:42;;;;;;;73.70;40.42;;;4.20;99.90;;;;;;5011299;28;20500;-83
2020/12/16 01:42:08;;;;;;;72.07;40.08;;;4.20;99.90;;;;;;5012916;28;20030;-85
2020/12/16 01:44:33;;;;;;;67.03;38.38;;;4.20;99.90;;;;;;5011312;28;20026;-84
2020/12/16 01:47:01;;;;;;;69.07;38.97;;;4.30;99.90;;;;;;5011552;28;20046;-83
2020/12/16 01:49:28;;;;;;;64.97;36.55;;;4.30;99.90;;;;;;5011769;28;20029;-83
2020/12/16 01:51:56;;;;;;;59.13;34.83;;;4.10;99.90;;;;;;5010824;28;20040;-83
2020/12/16 01:54:24;;;;;;;56.83;33.33;;;4.30;99.90;;;;;;5010966;28;20069;-83
2020/12/16 01:56:53;;;;;;;50.05;29.40;;;4.30;99.90;;;;;;5011208;28;20466;-84
2020/12/16 01:59:21;;;;;;;53.90;30.35;;;4.40;99.90;;;;;;5011973;28;20057;-84
2020/12/16 02:01:50;;;;;;;46.13;28.27;;;4.50;99.90;;;;;;5012880;28;20026;-84
2020/12/16 02:04:23;;;;;;;52.20;28.40;;;4.40;99.90;;;;;;5010995;28;20676;-83
2020/12/16 02:06:52;;;;;;;47.42;27.35;;;4.30;99.90;;;;;;5006774;28;20033;-82
2020/12/16 02:09:20;;;;;;;45.60;27.15;;;4.30;99.90;;;;;;5010426;28;20026;-82
2020/12/16 02:11:46;;;;;;;46.55;26.25;;;4.50;99.90;;;;;;5010934;28;20026;-84
2020/12/16 02:14:12;;;;;;;44.83;26.42;;;4.20;99.90;;;;;;5011200;28;20511;-83
2020/12/16 02:16:38;;;;;;;50.15;27.00;;;4.30;99.90;;;;;;4995075;28;20030;-83
2020/12/16 02:19:06;;;;;;;45.65;27.10;;;4.10;99.90;;;;;;4992420;28;20050;-84
2020/12/16 02:21:33;;;;;;;39.75;24.90;;;4.20;99.90;;;;;;4991840;28;20053;-84
2020/12/16 02:24:08;;;;;;;37.88;23.92;;;4.10;99.90;;;;;;4991290;28;20559;-83
2020/12/16 02:26:43;;;;;;;42.33;22.98;;;4.20;99.90;;;;;;4991518;28;20037;-83
2020/12/16 02:29:09;;;;;;;36.70;22.45;;;4.40;99.90;;;;;;4990159;28;20037;-84
2020/12/16 02:31:37;;;;;;;41.28;24.02;;;4.30;99.90;;;;;;4989794;28;20041;-82
2020/12/16 02:34:04;;;;;;;35.42;23.05;;;4.20;99.90;;;;;;4990861;28;20060;-83
2020/12/16 02:36:30;;;;;;;38.40;24.00;;;4.30;99.90;;;;;;4991582;28;20025;-84
2020/12/16 02:38:56;;;;;;;38.13;22.83;;;4.10;99.90;;;;;;4990333;28;20026;-84
2020/12/16 02:41:22;;;;;;;38.67;23.70;;;4.00;99.90;;;;;;4990447;28;20078;-83
2020/12/16 02:43:48;;;;;;;39.70;23.75;;;4.20;99.90;;;;;;4990375;28;20113;-84
2020/12/16 02:46:14;;;;;;;41.85;22.92;;;4.20;99.90;;;;;;4990471;28;20054;-84
2020/12/16 02:48:40;;;;;;;43.63;24.08;;;4.00;99.90;;;;;;4991924;28;20033;-85
2020/12/16 02:51:05;;;;;;;37.10;23.85;;;4.10;99.90;;;;;;4991859;28;20479;-86
2020/12/16 02:53:31;;;;;;;47.70;24.42;;;4.10;99.90;;;;;;4990389;28;20023;-84
2020/12/16 02:55:57;;;;;;;36.55;22.73;;;3.90;99.90;;;;;;4991659;28;20046;-83
2020/12/16 02:58:26;;;;;;;40.10;24.52;;;3.80;99.90;;;;;;4988939;28;20026;-85
2020/12/16 03:00:52;;;;;;;41.25;25.08;;;3.90;99.90;;;;;;4989346;28;20062;-85
2020/12/16 03:03:18;;;;;;;41.88;22.23;;;4.00;99.90;;;;;;4989234;28;20022;-84
2020/12/16 03:05:44;;;;;;;39.97;23.98;;;3.90;99.90;;;;;;4990332;28;20034;-85
2020/12/16 03:08:10;;;;;;;36.95;23.27;;;3.80;99.90;;;;;;5010188;28;20025;-83
2020/12/16 03:10:37;;;;;;;38.83;24.40;;;3.80;99.90;;;;;;5010292;28;20033;-83
2020/12/16 03:13:03;;;;;;;38.97;24.25;;;3.70;99.90;;;;;;5012122;28;20026;-83
2020/12/16 03:15:29;;;;;;;38.83;22.30;;;3.80;99.90;;;;;;5012971;28;20050;-83
2020/12/16 03:17:55;;;;;;;38.42;22.13;;;3.90;99.90;;;;;;5000394;28;20026;-85
2020/12/16 03:20:20;;;;;;;41.65;22.30;;;3.90;99.90;;;;;;4994705;28;20023;-84
2020/12/16 03:22:46;;;;;;;38.20;22.48;;;3.80;99.90;;;;;;4994047;28;20054;-83
2020/12/16 03:25:12;;;;;;;38.25;21.60;;;3.60;99.90;;;;;;4994510;28;20027;-84
2020/12/16 03:27:38;;;;;;;31.80;20.20;;;3.20;99.90;;;;;;4995174;28;20556;-85
2020/12/16 03:30:05;;;;;;;36.30;20.58;;;3.10;99.90;;;;;;4996037;28;20108;-83
2020/12/16 03:32:31;;;;;;;29.05;17.13;;;3.10;99.90;;;;;;4994218;28;20049;-84
2020/12/16 03:34:56;;;;;;;33.10;17.58;;;2.90;99.90;;;;;;4994320;28;20410;-86
2020/12/16 03:37:22;;;;;;;31.42;16.33;;;2.90;99.90;;;;;;4993802;28;20027;-85
2020/12/16 03:39:48;;;;;;;53.08;17.98;;;2.90;99.90;;;;;;4994386;28;20035;-84
2020/12/16 03:42:14;;;;;;;31.27;16.52;;;2.60;99.90;;;;;;4993203;28;20026;-85
2020/12/16 03:44:40;;;;;;;36.20;15.93;;;2.70;99.90;;;;;;4993864;28;20527;-84
2020/12/16 03:47:05;;;;;;;32.40;16.17;;;2.60;99.90;;;;;;4994326;28;20078;-83
2020/12/16 03:49:31;;;;;;;36.78;17.02;;;2.60;99.90;;;;;;4995416;28;20046;-84
2020/12/16 03:51:58;;;;;;;37.97;17.13;;;2.70;99.90;;;;;;4993888;28;20030;-84
2020/12/16 03:54:24;;;;;;;26.13;15.40;;;2.70;99.90;;;;;;4993592;28;20066;-84
2020/12/16 03:56:51;;;;;;;32.90;16.13;;;2.70;99.90;;;;;;4993106;28;20108;-84
2020/12/16 03:59:16;;;;;;;27.80;15.60;;;2.90;99.90;;;;;;4992470;28;20389;-84
2020/12/16 04:01:42;;;;;;;34.25;16.40;;;2.90;99.90;;;;;;4992762;28;20030;-84
2020/12/16 04:04:09;;;;;;;30.40;16.38;;;2.90;99.90;;;;;;4992882;28;20569;-83
2020/12/16 04:06:36;;;;;;;33.08;15.73;;;2.70;99.90;;;;;;4998037;28;20048;-85
2020/12/16 04:09:04;;;;;;;33.15;15.57;;;2.70;99.90;;;;;;5013550;28;20026;-85
2020/12/16 04:11:30;;;;;;;34.53;16.42;;;2.60;99.90;;;;;;5013603;28;20496;-85
2020/12/16 04:13:56;;;;;;;38.05;15.70;;;2.90;99.90;;;;;;5012513;28;20030;-85
2020/12/16 04:16:22;;;;;;;38.70;16.60;;;2.90;99.90;;;;;;5013448;28;20038;-85
2020/12/16 04:18:48;;;;;;;35.10;16.70;;;3.00;99.90;;;;;;5012822;28;20026;-83
2020/12/16 04:21:17;;;;;;;34.63;16.88;;;2.90;99.90;;;;;;5013269;28;20029;-83
2020/12/16 04:23:43;;;;;;;30.95;16.65;;;2.80;99.90;;;;;;5013802;28;20066;-85
2020/12/16 04:26:09;;;;;;;39.10;17.17;;;2.70;99.90;;;;;;5012841;28;20034;-84
2020/12/16 04:28:36;;;;;;;43.17;17.65;;;2.60;99.90;;;;;;5011688;28;20108;-84
2020/12/16 04:31:04;;;;;;;34.97;17.13;;;2.60;99.90;;;;;;5012008;28;20034;-85
2020/12/16 04:33:30;;;;;;;38.45;17.48;;;2.80;99.90;;;;;;5011595;28;20030;-83
2020/12/16 04:35:56;;;;;;;67.00;18.48;;;3.00;99.90;;;;;;5013890;28;20034;-84
2020/12/16 04:38:21;;;;;;;45.60;17.92;;;3.00;99.90;;;;;;5013303;28;20100;-83
2020/12/16 04:40:47;;;;;;;35.58;15.63;;;2.80;99.90;;;;;;5012172;28;20390;-83
2020/12/16 04:43:18;;;;;;;35.50;16.42;;;3.00;99.90;;;;;;5012938;28;20470;-84
2020/12/16 04:45:44;;;;;;;31.17;16.50;;;3.00;99.90;;;;;;5014073;28;20470;-84
2020/12/16 04:48:11;;;;;;;37.58;16.85;;;3.20;99.90;;;;;;5013429;28;20552;-85
2020/12/16 04:50:38;;;;;;;30.85;16.73;;;3.10;99.90;;;;;;5012609;28;20523;-83
2020/12/16 04:53:09;;;;;;;32.42;16.27;;;3.20;99.90;;;;;;5012168;28;20271;-83
2020/12/16 04:55:35;;;;;;;32.60;16.83;;;3.20;99.90;;;;;;5012448;28;20041;-83
2020/12/16 04:58:02;;;;;;;37.58;16.52;;;3.20;99.90;;;;;;5011703;28;20381;-84
2020/12/16 05:00:31;;;;;;;43.42;17.85;;;3.20;99.90;;;;;;5010916;28;20048;-84
2020/12/16 05:03:00;;;;;;;38.42;17.58;;;3.20;99.90;;;;;;5010979;28;20037;-83
2020/12/16 05:05:27;;;;;;;31.92;16.13;;;3.30;99.90;;;;;;5011320;28;20474;-84
2020/12/16 05:07:53;;;;;;;29.48;17.33;;;3.30;99.90;;;;;;5010964;28;20033;-83
2020/12/16 05:10:35;;;;;;;35.72;16.65;;;3.50;99.90;;;;;;5012017;28;20185;-84
2020/12/16 05:13:09;;;;;;;32.40;17.00;;;3.50;99.90;;;;;;5012975;28;20032;-84
2020/12/16 05:15:36;;;;;;;38.10;17.75;;;3.60;99.90;;;;;;5011989;28;20050;-83
2020/12/16 05:18:16;;;;;;;32.15;16.45;;;3.60;99.90;;;;;;5012985;28;20022;-84
2020/12/16 05:20:53;;;;;;;36.55;17.50;;;3.60;99.90;;;;;;5142706;23;20112;-83
2020/12/16 05:23:23;;;;;;;42.17;18.05;;;3.60;99.90;;;;;;4974273;28;20038;-84
2020/12/16 05:25:59;;;;;;;39.58;18.42;;;3.60;99.90;;;;;;4988522;28;20027;-84
2020/12/16 05:28:31;;;;;;;39.33;19.23;;;3.70;99.90;;;;;;4991107;28;20023;-85
2020/12/16 05:30:57;;;;;;;39.38;17.83;;;3.70;99.90;;;;;;4990829;28;20473;-84
2020/12/16 05:33:24;;;;;;;44.65;17.33;;;3.50;99.90;;;;;;4991140;28;20026;-83
2020/12/16 05:35:54;;;;;;;46.75;18.92;;;3.50;99.90;;;;;;4992658;28;20035;-84
2020/12/16 05:38:20;;;;;;;47.63;20.50;;;3.60;99.90;;;;;;4992773;28;20060;-84
2020/12/16 05:40:47;;;;;;;46.33;19.73;;;3.60;99.90;;;;;;4991950;28;20030;-83
2020/12/16 05:43:27;;;;;;;51.13;20.33;;;3.50;99.90;;;;;;4990988;28;20026;-83
2020/12/16 05:45:55;;;;;;;;;;;3.50;99.90;;;;;;4991103;28;20080;-83
2020/12/16 05:48:30;;;;;;;56.75;21.25;;;3.50;99.90;;;;;;4974710;28;19906;-83
2020/12/16 05:50:58;;;;;;;53.90;21.35;;;3.50;99.90;;;;;;4975290;28;20037;-83
2020/12/16 05:53:28;;;;;;;56.65;22.13;;;3.60;99.90;;;;;;4992581;28;20026;-83
2020/12/16 05:55:59;;;;;;;54.00;22.25;;;3.60;99.90;;;;;;4992940;28;20042;-84
2020/12/16 05:58:30;;;;;;;50.92;21.00;;;3.70;99.90;;;;;;4990542;28;20030;-83
2020/12/16 06:00:58;;;;;;;44.53;19.58;;;3.80;99.90;;;;;;4991689;28;20043;-84
2020/12/16 06:03:33;;;;;;;46.78;19.48;;;3.90;99.90;;;;;;4974274;28;20018;-84
2020/12/16 06:06:07;;;;;;;45.83;20.10;;;3.90;99.90;;;;;;4974603;28;20038;-83
2020/12/16 06:08:35;;;;;;;47.03;18.58;;;4.00;99.90;;;;;;4975117;28;20375;-84
2020/12/16 06:11:03;;;;;;;42.88;18.98;;;4.00;99.90;;;;;;4971908;28;20023;-84
2020/12/16 06:13:28;;;;;;;48.65;18.90;;;3.90;99.90;;;;;;4973021;28;20112;-84
2020/12/16 06:16:07;;;;;;;43.78;19.67;;;3.90;99.90;;;;;;4956468;28;20090;-86
2020/12/16 06:19:08;;;;;;;89.13;40.00;;;4.00;99.90;;;;;;4987421;23;20046;-89
2020/12/16 06:21:54;;;;;;;206.15;96.40;;;4.10;99.90;;;;;;4984441;28;20429;-86
2020/12/16 06:24:27;;;;;;;233.43;110.18;;;4.30;99.90;;;;;;4993838;28;20025;-84
2020/12/16 06:27:03;;;;;;;311.35;144.60;;;4.30;99.90;;;;;;5011629;28;20030;-84
2020/12/16 06:29:30;;;;;;;180.82;85.95;;;4.40;99.90;;;;;;4993526;28;20044;-83
2020/12/16 06:32:04;;;;;;;98.90;47.03;;;4.40;99.90;;;;;;4994404;28;20077;-83
2020/12/16 06:34:30;;;;;;;64.75;33.50;;;5.10;99.90;;;;;;4993682;28;20191;-82
2020/12/16 06:36:56;;;;;;;51.67;23.40;;;4.80;99.90;;;;;;5010690;28;20035;-84
2020/12/16 06:39:23;;;;;;;42.83;20.25;;;4.50;99.90;;;;;;4992961;28;20025;-85
2020/12/16 06:41:53;;;;;;;51.67;21.30;;;4.40;99.90;;;;;;5009916;28;20050;-84
2020/12/16 06:44:21;;;;;;;43.17;20.02;;;4.40;99.90;;;;;;4993383;28;20120;-85
2020/12/16 06:46:49;;;;;;;41.40;19.05;;;4.50;99.90;;;;;;5009032;28;20022;-85
2020/12/16 06:49:24;;;;;;;46.47;20.00;;;4.50;99.90;;;;;;4992644;28;20566;-83
2020/12/16 06:51:52;;;;;;;43.05;21.00;;;4.40;99.90;;;;;;5010619;28;20106;-84
2020/12/16 06:54:20;;;;;;;46.97;21.08;;;4.40;99.90;;;;;;5003621;28;20134;-86
2020/12/16 06:56:51;;;;;;;44.15;20.67;;;4.20;99.90;;;;;;4985489;28;20030;-83
2020/12/16 06:59:54;;;;;;;46.67;21.10;;;4.00;99.90;;;;;;4996610;28;20026;-82
2020/12/16 07:02:25;;;;;;;47.67;20.52;;;4.20;99.90;;;;;;4974300;28;20132;-83
2020/12/16 07:04:52;;;;;;;94.20;42.30;;;4.40;99.90;;;;;;4975227;28;20499;-90
2020/12/16 07:07:44;;;;;;;84.10;36.53;;;5.00;99.90;;;;;;4975108;28;20510;-84
2020/12/16 07:10:35;;;;;;;51.58;23.92;;;4.90;99.90;;;;;;4992794;28;20015;-85
2020/12/16 07:13:27;;;;;;;49.05;21.85;;;4.90;99.90;;;;;;4981529;28;20023;-84
2020/12/16 07:15:55;;;;;;;43.10;19.55;;;4.80;99.90;;;;;;4974263;28;20055;-81
2020/12/16 07:18:41;;;;;;;45.50;19.98;;;4.70;99.90;;;;;;4991451;28;20132;-82
2020/12/16 07:21:19;;;;;;;45.17;20.05;;;4.60;99.90;;;;;;4991772;28;20037;-82
2020/12/16 07:23:47;;;;;;;40.70;18.70;;;4.50;99.90;;;;;;4974133;28;20363;-83
2020/12/16 07:26:27;;;;;;;41.17;22.13;;;4.50;99.90;;;;;;5000596;28;20026;-82
2020/12/16 07:28:55;;;;;;;45.45;19.67;;;4.60;99.90;;;;;;5010873;28;20532;-83
2020/12/16 07:31:22;;;;;;;46.13;19.63;;;4.70;99.90;;;;;;4993628;28;20030;-83
2020/12/16 07:33:48;;;;;;;40.03;20.35;;;4.70;99.90;;;;;;4993468;28;20490;-82
2020/12/16 07:36:18;;;;;;;43.30;21.02;;;4.70;99.90;;;;;;4993721;28;20038;-82
2020/12/16 07:38:54;;;;;;;47.17;21.52;;;4.80;99.90;;;;;;5011403;28;20033;-82
2020/12/16 07:41:30;;;;;;;41.22;20.45;;;4.80;99.90;;;;;;5011123;28;20066;-82
2020/12/16 07:44:01;;;;;;;47.03;20.70;;;4.80;99.90;;;;;;4975028;28;20034;-83
2020/12/16 07:46:27;;;;;;;49.95;19.52;;;4.70;99.90;;;;;;4989545;28;20456;-84
2020/12/16 07:48:53;;;;;;;46.75;21.25;;;4.70;99.90;;;;;;4971812;28;20046;-82
2020/12/16 07:51:20;;;;;;;49.95;22.30;;;4.90;99.90;;;;;;4970155;28;20117;-84
2020/12/16 07:53:49;;;;;;;46.78;20.60;;;4.70;99.90;;;;;;4986216;28;20505;-81
2020/12/16 07:56:19;;;;;;;44.33;21.55;;;4.60;99.90;;;;;;4972019;28;20045;-81
2020/12/16 07:58:45;;;;;;;47.47;20.95;;;4.60;99.90;;;;;;4994408;28;20432;-81
2020/12/16 08:01:18;;;;;;;43.05;20.90;;;4.70;99.90;;;;;;4989782;28;20033;-80
2020/12/16 08:03:45;;;;;;;50.30;22.02;;;4.80;99.90;;;;;;5010224;28;20038;-80
2020/12/16 08:06:11;;;;;;;58.90;23.90;;;4.80;99.90;;;;;;4974769;28;20023;-80
2020/12/16 08:08:48;;;;;;;52.33;22.73;;;4.60;99.90;;;;;;4978663;28;20440;-81
2020/12/16 08:11:16;;;;;;;49.58;22.60;;;4.60;99.90;;;;;;4986014;28;20030;-81
2020/12/16 08:13:42;;;;;;;47.75;21.42;;;4.70;99.90;;;;;;5014258;28;20362;-82
2020/12/16 08:16:08;;;;;;;58.58;23.77;;;4.70;99.90;;;;;;4992119;28;20045;-81
2020/12/16 08:18:38;;;;;;;53.10;23.55;;;4.60;99.90;;;;;;4994322;28;20050;-81
2020/12/16 08:21:14;;;;;;;53.75;24.30;;;4.60;99.90;;;;;;4976622;28;20030;-81
2020/12/16 08:23:40;;;;;;;67.40;28.05;;;4.60;99.90;;;;;;4994016;28;20642;-80
2020/12/16 08:26:06;;;;;;;48.50;24.00;;;4.70;99.90;;;;;;4976722;28;20026;-80
2020/12/16 08:28:32;;;;;;;50.05;23.67;;;4.70;99.90;;;;;;4976781;28;20166;-80
2020/12/16 08:30:58;;;;;;;52.67;22.98;;;4.70;99.90;;;;;;4976147;28;20061;-80
2020/12/16 08:33:27;;;;;;;57.90;25.92;;;4.50;99.90;;;;;;4994786;28;20089;-81
2020/12/16 08:35:57;;;;;;;55.97;25.13;;;4.40;99.90;;;;;;4976194;28;20155;-82
2020/12/16 08:38:41;;;;;;;55.65;24.48;;;4.40;99.90;;;;;;4975719;28;20018;-82
2020/12/16 08:41:09;;;;;;;59.50;25.38;;;4.50;99.90;;;;;;4983318;28;20034;-83
2020/12/16 08:43:37;;;;;;;56.50;25.42;;;4.40;99.90;;;;;;4996250;28;20033;-82
2020/12/16 08:46:10;;;;;;;56.83;24.98;;;4.30;99.90;;;;;;4992680;28;20030;-82
2020/12/16 08:48:47;;;;;;;54.10;25.83;;;4.20;99.90;;;;;;4994446;28;20034;-82
2020/12/16 08:51:19;;;;;;;60.55;25.17;;;4.20;99.90;;;;;;4976338;28;20060;-82
2020/12/16 08:53:56;;;;;;;67.00;27.08;;;4.20;99.90;;;;;;4994143;28;20062;-84
2020/12/16 08:56:44;;;;;;;61.38;24.33;;;4.30;99.90;;;;;;4992815;28;20042;-83
2020/12/16 08:59:14;;;;;;;56.33;28.13;;;4.50;99.90;;;;;;5011421;28;20466;-82
2020/12/16 09:01:45;;;;;;;54.97;25.88;;;4.40;99.90;;;;;;4987059;28;20453;-83
2020/12/16 09:04:35;;;;;;;59.97;26.83;;;4.10;99.90;;;;;;4976490;28;20061;-82
2020/12/16 09:07:03;;;;;;;62.75;26.00;;;4.30;99.90;;;;;;4994048;28;20479;-80
2020/12/16 09:09:30;;;;;;;57.38;27.42;;;4.20;99.90;;;;;;4983623;28;20402;-80
2020/12/16 09:11:56;;;;;;;54.25;26.73;;;4.50;99.90;;;;;;4999230;28;20099;-83
2020/12/16 09:14:22;;;;;;;61.90;28.63;;;4.40;99.90;;;;;;5010064;28;20042;-82
2020/12/16 09:16:48;;;;;;;56.47;28.17;;;4.20;99.90;;;;;;5002969;28;20042;-80
2020/12/16 09:19:22;;;;;;;65.47;29.77;;;4.40;99.90;;;;;;4975639;28;20057;-80
2020/12/16 09:21:52;;;;;;;56.65;27.52;;;4.60;99.90;;;;;;4975759;28;20515;-81
2020/12/16 09:24:23;;;;;;;53.35;26.30;;;4.70;99.90;;;;;;4975776;28;20096;-81
2020/12/16 09:26:50;;;;;;;;;;;4.60;99.90;;;;;;4989481;28;20124;-80
2020/12/16 09:29:28;;;;;;;57.30;25.35;;;4.40;99.90;;;;;;5012935;28;19944;-81
2020/12/16 09:32:11;;;;;;;52.03;24.95;;;4.30;99.90;;;;;;4984509;28;20034;-81
2020/12/16 09:34:41;;;;;;;57.00;26.15;;;4.40;99.90;;;;;;4993192;28;20037;-81
2020/12/16 09:37:20;;;;;;;55.33;27.85;;;4.40;99.90;;;;;;4992866;28;20364;-82
2020/12/16 09:39:48;;;;;;;57.58;28.40;;;4.50;99.90;;;;;;4993063;28;20023;-81
2020/12/16 09:42:16;;;;;;;56.53;27.70;;;4.60;99.90;;;;;;4992297;28;20033;-81
2020/12/16 09:44:43;;;;;;;54.70;26.27;;;4.60;99.90;;;;;;5012467;28;20025;-81
2020/12/16 09:47:21;;;;;;;54.92;26.17;;;4.50;99.90;;;;;;4982447;28;20045;-80
2020/12/16 09:50:00;;;;;;;53.05;26.08;;;4.60;99.90;;;;;;5004431;28;20045;-81
2020/12/16 09:52:37;;;;;;;60.55;27.23;;;4.50;99.90;;;;;;5010595;28;20030;-82
2020/12/16 09:55:16;;;;;;;51.22;26.05;;;4.60;99.90;;;;;;4980578;28;20030;-81
2020/12/16 09:57:43;;;;;;;64.70;26.17;;;4.60;99.90;;;;;;4984883;28;20525;-81
2020/12/16 10:00:11;;;;;;;54.00;27.42;;;4.50;99.90;;;;;;5000277;28;20022;-82
2020/12/16 10:02:37;;;;;;;57.10;26.25;;;4.60;99.90;;;;;;4982589;28;20037;-80
2020/12/16 10:05:04;;;;;;;52.90;25.58;;;4.30;99.90;;;;;;5002792;28;20014;-81
2020/12/16 10:07:32;;;;;;;54.42;24.92;;;4.20;99.90;;;;;;5000426;28;20049;-81
2020/12/16 10:09:58;;;;;;;53.25;25.40;;;4.30;99.90;;;;;;5010824;28;20088;-81
2020/12/16 10:12:24;;;;;;;52.92;24.70;;;4.60;99.90;;;;;;4978245;28;20131;-81
2020/12/16 10:14:50;;;;;;;52.85;26.50;;;4.90;99.90;;;;;;4992333;28;20060;-82
2020/12/16 10:17:20;;;;;;;52.60;25.25;;;5.00;99.90;;;;;;4974112;28;20030;-81
2020/12/16 10:19:46;;;;;;;51.13;25.77;;;5.00;99.90;;;;;;4992408;28;20038;-81
2020/12/16 10:22:12;;;;;;;53.67;26.88;;;5.00;99.90;;;;;;4991916;28;20034;-81
2020/12/16 10:24:38;;;;;;;50.55;26.02;;;5.10;99.90;;;;;;4991905;28;20129;-82
2020/12/16 10:27:04;;;;;;;59.88;27.55;;;5.10;99.90;;;;;;5007626;28;20030;-81
2020/12/16 10:29:29;;;;;;;54.05;26.52;;;5.10;99.90;;;;;;5011711;28;20485;-80
2020/12/16 10:31:55;;;;;;;61.13;28.27;;;5.20;99.90;;;;;;5000413;28;20096;-81
2020/12/16 10:34:21;;;;;;;63.80;28.33;;;5.10;99.90;;;;;;4973974;28;20161;-81
2020/12/16 10:36:54;;;;;;;52.83;27.33;;;5.00;99.90;;;;;;4973893;28;20125;-81
2020/12/16 10:39:21;;;;;;;64.35;29.02;;;4.90;99.90;;;;;;4983188;28;20065;-81
2020/12/16 10:41:57;;;;;;;61.83;29.10;;;5.00;99.90;;;;;;4987419;28;20029;-81
2020/12/16 10:44:23;;;;;;;64.10;29.40;;;5.00;99.90;;;;;;4993114;28;20038;-81
2020/12/16 10:46:50;;;;;;;63.58;28.80;;;5.20;99.90;;;;;;5010742;28;20018;-81
2020/12/16 10:49:16;;;;;;;64.80;30.83;;;5.10;99.90;;;;;;4993596;28;20026;-81
2020/12/16 10:51:43;;;;;;;59.55;28.77;;;5.10;99.90;;;;;;4983258;28;20121;-82
2020/12/16 10:54:10;;;;;;;60.88;29.45;;;5.10;99.90;;;;;;4957172;28;20072;-83
2020/12/16 10:56:36;;;;;;;64.07;30.27;;;5.10;99.90;;;;;;5004799;28;20049;-82
2020/12/16 10:59:02;;;;;;;61.88;30.10;;;5.00;99.90;;;;;;4984798;28;20026;-82
2020/12/16 11:01:28;;;;;;;64.40;30.27;;;5.00;99.90;;;;;;4993793;28;20032;-81
2020/12/16 11:03:54;;;;;;;64.85;30.52;;;5.00;99.90;;;;;;4993651;28;20038;-82
2020/12/16 11:06:19;;;;;;;57.80;28.83;;;5.00;99.90;;;;;;4979501;28;20142;-82
2020/12/16 11:08:45;;;;;;;67.35;31.30;;;5.00;99.90;;;;;;5001634;28;20033;-83
2020/12/16 11:11:11;;;;;;;57.90;28.80;;;5.00;99.90;;;;;;4984699;28;20485;-83
2020/12/16 11:13:37;;;;;;;62.55;30.15;;;5.00;99.90;;;;;;4979908;28;20422;-82
2020/12/16 11:16:03;;;;;;;63.92;29.88;;;4.90;99.90;;;;;;4999003;28;20060;-83
2020/12/16 11:18:29;;;;;;;62.13;28.80;;;5.00;99.90;;;;;;4973210;28;20049;-81
2020/12/16 11:20:55;;;;;;;66.25;32.00;;;5.00;99.90;;;;;;4982681;28;20030;-84
2020/12/16 11:23:21;;;;;;;69.13;29.67;;;5.00;99.90;;;;;;4974948;28;20381;-83
2020/12/16 11:25:46;;;;;;;74.53;32.03;;;5.00;99.90;;;;;;5000188;28;20022;-81
2020/12/16 11:28:12;;;;;;;70.47;32.63;;;5.00;99.90;;;;;;4988073;28;20034;-84
2020/12/16 11:30:38;;;;;;;68.65;31.08;;;5.10;99.90;;;;;;4974048;28;20045;-81
2020/12/16 11:33:04;;;;;;;67.13;32.30;;;5.10;99.90;;;;;;4974491;28;20395;-81
2020/12/16 11:35:29;;;;;;;72.88;31.85;;;5.10;99.90;;;;;;4977683;28;20077;-80
2020/12/16 11:37:55;;;;;;;66.57;33.85;;;5.10;99.90;;;;;;4986664;28;20044;-80
2020/12/16 11:40:21;;;;;;;72.78;32.63;;;5.10;99.90;;;;;;4992506;28;20032;-80
2020/12/16 11:42:46;;;;;;;72.22;31.92;;;5.20;99.90;;;;;;4992189;28;20450;-80
2020/12/16 11:45:12;;;;;;;71.38;33.40;;;5.20;99.90;;;;;;4995297;28;20034;-81
2020/12/16 11:47:39;;;;;;;73.78;32.35;;;5.40;99.90;;;;;;4994546;28;20445;-80
2020/12/16 11:50:08;;;;;;;81.82;33.67;;;5.30;99.90;;;;;;4977795;28;20030;-80
2020/12/16 11:52:33;;;;;;;82.50;34.67;;;5.40;99.90;;;;;;4997793;28;20027;-80
2020/12/16 11:54:59;;;;;;;71.43;34.42;;;5.60;99.90;;;;;;4986622;28;20041;-80
2020/12/16 11:57:25;;;;;;;73.88;34.80;;;5.70;99.90;;;;;;5002098;28;20018;-80
2020/12/16 11:59:51;;;;;;;67.35;32.65;;;5.80;99.90;;;;;;5004482;28;20018;-81
2020/12/16 12:02:16;;;;;;;73.40;35.72;;;5.60;99.90;;;;;;4984934;28;20128;-80
2020/12/16 12:04:42;;;;;;;72.57;34.03;;;5.60;99.90;;;;;;4993857;28;20121;-79
2020/12/16 12:07:08;;;;;;;75.70;34.17;;;5.60;99.90;;;;;;4986881;28;20109;-80
2020/12/16 12:09:35;;;;;;;77.50;33.40;;;5.50;99.90;;;;;;4976324;28;20038;-81
2020/12/16 12:12:00;;;;;;;65.90;31.17;;;5.60;99.90;;;;;;4976892;28;20029;-79
2020/12/16 12:14:28;;;;;;;73.30;34.45;;;5.30;99.90;;;;;;4976628;28;20022;-82
2020/12/16 12:16:54;;;;;;;83.35;37.38;;;5.40;99.90;;;;;;4977209;28;20087;-82
2020/12/16 12:19:20;;;;;;;73.78;35.95;;;5.50;99.90;;;;;;4976530;28;20081;-81
2020/12/16 12:21:47;;;;;;;75.03;36.25;;;5.40;99.90;;;;;;4976968;28;20030;-83
2020/12/16 12:24:13;;;;;;;71.20;34.72;;;5.60;99.90;;;;;;4976877;28;20022;-82
2020/12/16 12:26:38;;;;;;;74.28;36.30;;;5.70;99.90;;;;;;4976749;28;20031;-79
2020/12/16 12:29:04;;;;;;;86.80;37.50;;;5.80;99.90;;;;;;4993906;28;20374;-82
2020/12/16 12:31:30;;;;;;;75.50;36.75;;;5.80;99.90;;;;;;4994241;28;20062;-80
2020/12/16 12:33:56;;;;;;;88.00;36.90;;;5.80;99.90;;;;;;4976800;28;20038;-81
2020/12/16 12:36:26;;;;;;;87.93;36.65;;;5.90;99.90;;;;;;4976818;28;20169;-80
2020/12/16 12:38:55;;;;;;;84.95;39.08;;;6.00;99.90;;;;;;4976621;28;20030;-80
2020/12/16 12:41:21;;;;;;;82.93;38.63;;;5.80;99.90;;;;;;4976387;28;20519;-80
2020/12/16 12:43:47;;;;;;;81.68;39.22;;;5.90;99.90;;;;;;4993510;28;20054;-81
2020/12/16 12:46:13;;;;;;;85.68;40.72;;;5.90;99.90;;;;;;4994252;28;20011;-81